createdAt,value
2023-02-23T00:02:21.481Z,36.30
2023-02-23T00:04:52.928Z,37.28
2023-02-23T00:07:27.093Z,36.72
2023-02-23T00:09:56.967Z,34.47
2023-02-23T00:12:26.941Z,35.55
2023-02-23T00:14:56.092Z,36.35
2023-02-23T00:17:43.655Z,36.35
2023-02-23T00:20:18.504Z,35.15
2023-02-23T00:23:08.780Z,34.40
2023-02-23T00:25:50.412Z,34.22
2023-02-23T00:28:25.476Z,34.35
2023-02-23T00:31:06.075Z,37.47
2023-02-23T00:33:51.548Z,36.00
2023-02-23T00:36:28.720Z,35.75
2023-02-23T00:39:06.277Z,36.38
2023-02-23T00:41:55.354Z,34.95
2023-02-23T00:44:25.583Z,35.53
2023-02-23T00:47:02.863Z,37.13
2023-02-23T00:49:52.942Z,35.72
2023-02-23T00:52:28.942Z,35.13
2023-02-23T00:55:10.413Z,37.00
2023-02-23T00:57:58.544Z,35.75
2023-02-23T01:00:42.301Z,37.00
2023-02-23T01:03:31.949Z,36.15
2023-02-23T01:06:04.576Z,38.05
2023-02-23T01:08:36.540Z,37.95
2023-02-23T01:11:27.857Z,37.42
2023-02-23T01:14:08.805Z,40.10
2023-02-23T01:16:52.752Z,40.45
2023-02-23T01:22:05.913Z,38.67
2023-02-23T01:24:35.581Z,39.22
2023-02-23T01:27:07.518Z,41.63
2023-02-23T01:29:35.817Z,44.17
2023-02-23T01:32:07.696Z,42.80
2023-02-23T01:34:38.718Z,41.35
2023-02-23T01:37:09.846Z,41.33
2023-02-23T01:39:38.609Z,43.30
2023-02-23T01:42:15.649Z,43.53
2023-02-23T01:45:18.634Z,45.57
2023-02-23T01:48:15.840Z,41.63
2023-02-23T01:50:50.888Z,44.60
2023-02-23T01:53:24.640Z,40.40
2023-02-23T01:55:56.156Z,43.53
2023-02-23T01:58:25.352Z,42.42
2023-02-23T02:00:55.836Z,40.95
2023-02-23T02:03:46.902Z,39.63
2023-02-23T02:06:18.405Z,38.85
2023-02-23T02:08:50.952Z,38.90
2023-02-23T02:11:30.879Z,37.85
2023-02-23T02:14:02.602Z,38.92
2023-02-23T02:16:37.581Z,41.70
2023-02-23T02:19:38.091Z,40.00
2023-02-23T02:22:14.429Z,41.53
2023-02-23T02:24:48.530Z,41.33
2023-02-23T02:27:35.023Z,42.28
2023-02-23T02:30:13.728Z,42.22
2023-02-23T02:32:58.034Z,42.58
2023-02-23T02:35:44.301Z,40.22
2023-02-23T02:38:16.516Z,41.15
2023-02-23T02:40:54.298Z,44.60
2023-02-23T02:43:39.113Z,40.42
2023-02-23T02:46:14.909Z,43.47
2023-02-23T02:49:01.062Z,44.65
2023-02-23T02:51:43.872Z,43.90
2023-02-23T02:54:40.570Z,45.97
2023-02-23T02:57:12.238Z,43.38
2023-02-23T03:00:18.243Z,47.45
2023-02-23T03:03:24.957Z,45.90
2023-02-23T03:06:25.374Z,48.35
2023-02-23T03:09:18.281Z,47.28
2023-02-23T03:12:24.670Z,47.40
2023-02-23T03:15:11.071Z,50.72
2023-02-23T03:18:06.140Z,46.10
2023-02-23T03:20:59.384Z,46.83
2023-02-23T03:23:46.061Z,43.70
2023-02-23T03:26:39.102Z,45.33
2023-02-23T03:29:31.342Z,43.17
2023-02-23T03:32:23.968Z,46.15
2023-02-23T03:35:13.244Z,45.50
2023-02-23T03:38:04.392Z,47.20
2023-02-23T03:40:52.851Z,46.25
2023-02-23T03:43:46.390Z,46.03
2023-02-23T03:46:37.361Z,46.55
2023-02-23T03:49:46.307Z,48.10
2023-02-23T03:52:39.900Z,46.75
2023-02-23T03:55:34.084Z,47.27
2023-02-23T03:58:31.548Z,46.45
2023-02-23T04:01:20.291Z,47.72
2023-02-23T04:04:10.045Z,48.67
2023-02-23T04:07:00.890Z,49.33
2023-02-23T04:09:57.157Z,47.92
2023-02-23T04:12:53.771Z,45.75
2023-02-23T04:15:35.984Z,46.05
2023-02-23T04:18:18.433Z,46.88
2023-02-23T04:20:52.839Z,46.85
2023-02-23T04:23:22.879Z,48.17
2023-02-23T04:25:54.685Z,48.30
2023-02-23T04:28:26.507Z,46.58
2023-02-23T04:30:59.329Z,49.00
2023-02-23T04:33:40.926Z,49.22
2023-02-23T04:36:09.298Z,48.50
2023-02-23T04:38:39.061Z,49.47
2023-02-23T04:41:10.200Z,49.72
2023-02-23T04:43:39.072Z,50.42
2023-02-23T04:46:07.624Z,47.17
2023-02-23T04:48:39.423Z,48.50
2023-02-23T04:51:11.147Z,48.10
2023-02-23T04:53:59.132Z,47.72
2023-02-23T04:56:40.240Z,48.35
2023-02-23T04:59:13.485Z,49.80
2023-02-23T05:01:56.478Z,50.50
2023-02-23T05:04:24.980Z,48.25
2023-02-23T05:07:00.606Z,46.33
2023-02-23T05:09:35.984Z,50.38
2023-02-23T05:12:12.680Z,45.22
2023-02-23T05:14:42.378Z,45.90
2023-02-23T05:17:10.768Z,45.70
2023-02-23T05:19:39.378Z,47.13
2023-02-23T05:22:07.769Z,46.05
2023-02-23T05:24:38.565Z,48.08
2023-02-23T05:27:28.480Z,47.42
2023-02-23T05:30:11.017Z,47.60
2023-02-23T05:32:58.586Z,49.45
2023-02-23T05:35:29.919Z,48.83
2023-02-23T05:38:17.596Z,49.00
2023-02-23T05:40:52.091Z,48.47
2023-02-23T05:43:26.834Z,51.05
2023-02-23T05:45:55.595Z,50.70
2023-02-23T05:48:40.816Z,48.25
2023-02-23T05:51:15.461Z,47.67
2023-02-23T05:53:56.455Z,50.35
2023-02-23T05:56:34.448Z,51.20
2023-02-23T05:59:17.403Z,50.95
2023-02-23T06:02:06.129Z,49.45
2023-02-23T06:04:51.046Z,48.95
2023-02-23T06:07:33.578Z,51.08
2023-02-23T06:10:02.928Z,49.22
2023-02-23T06:12:38.750Z,49.65
2023-02-23T06:15:07.320Z,51.78
2023-02-23T06:17:43.020Z,48.78
2023-02-23T06:20:11.981Z,48.78
2023-02-23T06:22:42.988Z,49.90
2023-02-23T06:25:13.384Z,48.15
2023-02-23T06:27:45.615Z,49.60
2023-02-23T06:30:16.254Z,50.47
2023-02-23T06:33:04.065Z,51.00
2023-02-23T06:35:34.320Z,49.30
2023-02-23T06:38:04.188Z,50.97
2023-02-23T06:40:44.208Z,50.05
2023-02-23T06:43:28.513Z,51.45
2023-02-23T06:46:03.069Z,52.63
2023-02-23T06:48:37.983Z,54.67
2023-02-23T06:51:11.351Z,51.40
2023-02-23T06:53:57.173Z,52.28
2023-02-23T06:56:39.401Z,51.60
2023-02-23T06:59:11.745Z,53.33
2023-02-23T07:01:40.363Z,54.30
2023-02-23T07:04:09.908Z,51.22
2023-02-23T07:06:41.277Z,52.75
2023-02-23T07:09:11.476Z,52.50
2023-02-23T07:11:44.730Z,53.55
2023-02-23T07:14:26.131Z,53.47
2023-02-23T07:17:00.002Z,52.65
2023-02-23T07:19:33.834Z,53.38
2023-02-23T07:22:05.927Z,52.38
2023-02-23T07:24:35.410Z,51.15
2023-02-23T07:27:07.907Z,50.70
2023-02-23T07:29:36.659Z,53.38
2023-02-23T07:32:07.556Z,53.58
2023-02-23T07:34:39.715Z,54.63
2023-02-23T07:37:10.763Z,52.45
2023-02-23T07:39:39.537Z,52.75
2023-02-23T07:42:17.217Z,52.17
2023-02-23T07:44:50.205Z,52.10
2023-02-23T07:47:31.071Z,52.72
2023-02-23T07:50:02.408Z,56.50
2023-02-23T07:52:47.763Z,53.45
2023-02-23T07:55:27.083Z,52.22
2023-02-23T07:58:06.748Z,52.78
2023-02-23T08:00:55.608Z,51.33
2023-02-23T08:03:40.619Z,50.33
2023-02-23T08:06:08.967Z,48.70
2023-02-23T08:08:39.998Z,48.17
2023-02-23T08:11:08.289Z,46.95
2023-02-23T08:13:39.533Z,48.53
2023-02-23T08:16:08.511Z,48.22
2023-02-23T08:18:39.284Z,50.40
2023-02-23T08:21:10.138Z,49.85
2023-02-23T08:23:38.748Z,48.65
2023-02-23T08:26:07.502Z,48.70
2023-02-23T08:28:37.699Z,51.33
2023-02-23T08:31:09.899Z,51.08
2023-02-23T08:33:45.804Z,48.97
2023-02-23T08:36:16.586Z,49.88
2023-02-23T08:38:45.947Z,49.20
2023-02-23T08:41:14.300Z,50.95
2023-02-23T08:43:44.096Z,51.53
2023-02-23T08:46:12.784Z,51.00
2023-02-23T08:48:41.524Z,49.67
2023-02-23T08:51:12.496Z,50.58
2023-02-23T08:53:42.788Z,49.50
2023-02-23T08:56:12.741Z,50.78
2023-02-23T08:58:41.328Z,50.33
2023-02-23T09:01:17.921Z,49.40
2023-02-23T09:03:55.892Z,48.45
2023-02-23T09:06:27.927Z,44.13
2023-02-23T09:08:56.807Z,46.97
2023-02-23T09:11:26.605Z,44.45
2023-02-23T09:13:57.178Z,46.83
2023-02-23T09:16:26.025Z,42.33
2023-02-23T09:18:59.776Z,45.25
2023-02-23T09:21:34.614Z,43.10
2023-02-23T09:24:07.310Z,44.15
2023-02-23T09:26:45.791Z,44.08
2023-02-23T09:29:25.193Z,44.25
2023-02-23T09:32:13.110Z,45.67
2023-02-23T09:34:57.360Z,43.50
2023-02-23T09:37:41.503Z,41.47
2023-02-23T09:40:29.128Z,40.30
2023-02-23T09:43:03.780Z,41.10
2023-02-23T09:46:04.661Z,43.03
2023-02-23T09:48:36.324Z,41.90
2023-02-23T09:51:08.599Z,43.08
2023-02-23T09:53:44.286Z,43.10
2023-02-23T09:56:19.642Z,44.17
2023-02-23T09:58:54.636Z,41.70
2023-02-23T10:01:41.223Z,42.90
2023-02-23T10:04:26.941Z,41.03
2023-02-23T10:07:07.271Z,40.70
2023-02-23T10:09:47.641Z,41.28
2023-02-23T10:12:34.631Z,43.65
2023-02-23T10:15:18.131Z,43.67
2023-02-23T10:17:56.638Z,41.77
2023-02-23T10:20:43.679Z,42.15
2023-02-23T10:23:15.564Z,42.72
2023-02-23T10:25:46.494Z,42.70
2023-02-23T10:28:21.543Z,40.72
2023-02-23T10:30:56.648Z,39.50
2023-02-23T10:33:42.348Z,38.88
2023-02-23T10:36:26.404Z,38.67
2023-02-23T10:38:55.839Z,37.47
2023-02-23T10:41:27.694Z,39.28
2023-02-23T10:43:58.735Z,38.40
2023-02-23T10:46:36.305Z,35.75
2023-02-23T10:49:26.432Z,36.67
2023-02-23T10:51:58.166Z,35.28
2023-02-23T10:54:44.490Z,34.17
2023-02-23T10:57:21.625Z,34.72
2023-02-23T11:00:00.971Z,35.10
2023-02-23T11:02:46.544Z,34.65
2023-02-23T11:05:30.528Z,30.52
2023-02-23T11:08:10.616Z,32.10
2023-02-23T11:10:39.454Z,33.75
2023-02-23T11:13:21.954Z,36.50
2023-02-23T11:15:59.646Z,37.30
2023-02-23T11:18:37.256Z,35.30
2023-02-23T11:21:10.937Z,37.10
2023-02-23T11:23:42.757Z,35.25
2023-02-23T11:26:24.321Z,35.05
2023-02-23T11:29:05.603Z,34.20
2023-02-23T11:31:40.741Z,31.00
2023-02-23T11:34:18.643Z,32.88
2023-02-23T11:36:58.969Z,33.85
2023-02-23T11:39:27.495Z,34.70
2023-02-23T11:42:13.347Z,37.20
2023-02-23T11:44:41.834Z,35.75
2023-02-23T11:47:19.009Z,32.05
2023-02-23T11:49:51.762Z,27.77
2023-02-23T11:52:22.149Z,28.55
2023-02-23T11:54:53.816Z,23.83
2023-02-23T11:57:28.912Z,25.00
2023-02-23T12:00:01.549Z,25.02
2023-02-23T12:03:07.802Z,24.25
2023-02-23T12:05:38.777Z,23.63
2023-02-23T12:08:31.364Z,24.63
2023-02-23T12:11:05.400Z,24.30
2023-02-23T12:13:37.594Z,23.20
2023-02-23T12:16:19.844Z,25.10
2023-02-23T12:18:50.545Z,23.05
2023-02-23T12:21:23.513Z,23.92
2023-02-23T12:24:06.502Z,23.88
2023-02-23T12:27:03.074Z,21.58
2023-02-23T12:29:52.266Z,22.02
2023-02-23T12:32:26.213Z,22.55
2023-02-23T12:35:19.597Z,22.67
2023-02-23T12:37:58.768Z,22.88
2023-02-23T12:40:34.571Z,21.02
2023-02-23T12:43:04.098Z,21.17
2023-02-23T12:45:44.616Z,22.48
2023-02-23T12:48:13.856Z,20.55
2023-02-23T12:50:54.494Z,20.98
2023-02-23T12:53:26.354Z,19.23
2023-02-23T12:56:12.923Z,19.48
2023-02-23T12:58:50.590Z,18.83
2023-02-23T13:01:44.621Z,18.92
2023-02-23T13:04:34.495Z,17.67
2023-02-23T13:07:35.069Z,17.38
2023-02-23T13:10:27.020Z,15.68
2023-02-23T13:12:55.083Z,15.00
2023-02-23T13:15:27.195Z,16.20
2023-02-23T13:18:01.511Z,15.93
2023-02-23T13:23:09.474Z,14.02
2023-02-23T13:25:48.300Z,15.02
2023-02-23T13:28:22.522Z,13.73
2023-02-23T13:30:51.322Z,14.30
2023-02-23T13:33:43.653Z,14.07
2023-02-23T13:36:13.428Z,15.05
2023-02-23T13:38:55.166Z,13.65
2023-02-23T13:41:40.916Z,14.20
2023-02-23T13:44:26.544Z,13.65
2023-02-23T13:47:00.565Z,15.18
2023-02-23T13:49:31.538Z,16.10
2023-02-23T13:52:02.126Z,14.05
2023-02-23T13:54:34.280Z,15.23
2023-02-23T13:57:16.737Z,16.77
2023-02-23T13:59:46.388Z,15.50
2023-02-23T14:02:33.210Z,17.13
2023-02-23T14:05:14.573Z,14.48
2023-02-23T14:07:48.061Z,16.63
2023-02-23T14:10:19.154Z,15.13
2023-02-23T14:13:08.403Z,15.25
2023-02-23T14:15:37.778Z,14.27
2023-02-23T14:18:21.996Z,15.15
2023-02-23T14:20:55.800Z,16.23
2023-02-23T14:23:24.234Z,18.35
2023-02-23T14:25:57.176Z,20.55
2023-02-23T14:28:30.612Z,14.90
2023-02-23T14:31:04.725Z,16.27
2023-02-23T14:33:35.234Z,14.88
2023-02-23T14:36:04.276Z,14.90
2023-02-23T14:38:47.905Z,14.52
2023-02-23T14:41:37.353Z,14.63
2023-02-23T14:44:27.237Z,14.27
2023-02-23T14:46:57.073Z,15.10
2023-02-23T14:49:29.244Z,15.02
2023-02-23T14:52:09.759Z,16.85
2023-02-23T14:54:43.861Z,15.70
2023-02-23T14:57:26.107Z,16.27
2023-02-23T14:59:55.044Z,16.05
2023-02-23T15:02:26.429Z,16.50
2023-02-23T15:04:58.008Z,16.52
2023-02-23T15:07:32.817Z,16.77
2023-02-23T15:10:09.044Z,15.98
2023-02-23T15:12:49.532Z,16.25
2023-02-23T15:15:19.302Z,19.63
2023-02-23T15:17:52.481Z,19.25
2023-02-23T15:20:32.525Z,19.53
2023-02-23T15:23:04.612Z,19.48
2023-02-23T15:25:39.633Z,16.92
2023-02-23T15:28:26.292Z,19.02
2023-02-23T15:30:56.578Z,18.80
2023-02-23T15:33:35.180Z,17.48
2023-02-23T15:36:09.167Z,19.58
2023-02-23T15:38:47.371Z,20.67
2023-02-23T15:41:30.793Z,18.08
2023-02-23T15:44:07.854Z,19.40
2023-02-23T15:46:41.785Z,18.85
2023-02-23T15:49:19.311Z,20.50
2023-02-23T15:51:59.377Z,18.63
2023-02-23T15:54:54.905Z,17.75
2023-02-23T15:57:31.250Z,18.85
2023-02-23T16:00:08.415Z,18.63
2023-02-23T16:02:57.711Z,18.27
2023-02-23T16:05:32.558Z,19.95
2023-02-23T16:08:25.205Z,18.55
2023-02-23T16:11:08.851Z,17.38
2023-02-23T16:13:43.683Z,16.50
2023-02-23T16:16:19.163Z,17.90
2023-02-23T16:18:52.365Z,17.23
2023-02-23T16:21:28.132Z,17.48
2023-02-23T16:24:07.361Z,19.27
2023-02-23T16:26:42.358Z,21.42
2023-02-23T16:29:19.961Z,17.50
2023-02-23T16:31:50.167Z,18.33
2023-02-23T16:34:44.980Z,18.65
2023-02-23T16:37:25.354Z,19.42
2023-02-23T16:39:58.536Z,17.80
2023-02-23T16:42:34.093Z,16.35
2023-02-23T16:45:03.075Z,15.75
2023-02-23T16:47:41.750Z,16.92
2023-02-23T16:50:19.751Z,16.15
2023-02-23T16:52:54.144Z,15.95
2023-02-23T16:55:25.828Z,15.70
2023-02-23T16:58:01.840Z,15.52
2023-02-23T17:00:32.296Z,14.02
2023-02-23T17:03:22.326Z,14.25
2023-02-23T17:05:51.423Z,14.32
2023-02-23T17:08:41.289Z,13.70
2023-02-23T17:11:24.430Z,12.65
2023-02-23T17:13:55.213Z,14.05
2023-02-23T17:16:24.611Z,14.30
2023-02-23T17:19:01.977Z,14.10
2023-02-23T17:24:16.891Z,11.98
2023-02-23T17:26:48.602Z,12.80
2023-02-23T17:29:25.985Z,11.45
2023-02-23T17:32:00.580Z,13.75
2023-02-23T17:34:33.348Z,14.50
2023-02-23T17:37:08.134Z,12.70
2023-02-23T17:39:52.297Z,11.85
2023-02-23T17:42:34.985Z,12.43
2023-02-23T17:45:11.017Z,11.57
2023-02-23T17:47:52.413Z,11.40
2023-02-23T17:50:24.237Z,11.82
2023-02-23T17:52:57.438Z,11.25
2023-02-23T17:55:26.298Z,11.27
2023-02-23T17:57:55.601Z,10.95
2023-02-23T18:00:26.180Z,10.48
2023-02-23T18:03:16.999Z,10.38
2023-02-23T18:05:46.002Z,9.63
2023-02-23T18:08:23.099Z,9.45
2023-02-23T18:10:59.702Z,11.07
2023-02-23T18:13:34.671Z,10.73
2023-02-23T18:16:09.558Z,10.18
2023-02-23T18:18:49.335Z,11.52
2023-02-23T18:21:21.173Z,11.35
2023-02-23T18:23:52.494Z,12.10
2023-02-23T18:26:22.604Z,11.77
2023-02-23T18:28:58.235Z,11.57
2023-02-23T18:31:30.389Z,11.90
2023-02-23T18:34:02.626Z,11.52
2023-02-23T18:36:39.926Z,11.60
2023-02-23T18:39:18.878Z,10.60
2023-02-23T18:41:56.984Z,11.80
2023-02-23T18:44:26.982Z,11.77
2023-02-23T18:47:08.446Z,10.80
2023-02-23T18:49:40.893Z,10.85
2023-02-23T18:52:16.415Z,9.75
2023-02-23T18:54:50.612Z,10.85
2023-02-23T18:57:26.294Z,10.75
2023-02-23T19:00:11.782Z,11.00
2023-02-23T19:05:33.216Z,11.83
2023-02-23T19:08:08.229Z,11.13
2023-02-23T19:10:52.204Z,11.93
2023-02-23T19:13:31.092Z,23.42
2023-02-23T19:16:05.155Z,14.07
2023-02-23T19:18:41.700Z,12.35
2023-02-23T19:21:12.860Z,11.68
2023-02-23T19:23:43.958Z,11.50
2023-02-23T19:26:18.403Z,11.32
2023-02-23T19:28:49.796Z,12.10
2023-02-23T19:31:20.853Z,13.38
2023-02-23T19:36:25.150Z,11.57
2023-02-23T19:38:53.655Z,12.18
2023-02-23T19:41:43.606Z,11.45
2023-02-23T19:44:25.835Z,12.10
2023-02-23T19:47:04.088Z,11.63
2023-02-23T19:49:37.086Z,11.48
2023-02-23T19:52:05.870Z,13.50
2023-02-23T19:54:37.972Z,11.95
2023-02-23T19:57:06.505Z,11.00
2023-02-23T19:59:40.192Z,11.20
2023-02-23T20:02:10.799Z,11.82
2023-02-23T20:05:00.331Z,11.07
2023-02-23T20:07:41.003Z,13.27
2023-02-23T20:10:25.757Z,12.45
2023-02-23T20:13:02.444Z,12.90
2023-02-23T20:15:40.353Z,13.52
2023-02-23T20:18:16.732Z,10.93
2023-02-23T20:20:53.875Z,12.13
2023-02-23T20:23:25.363Z,12.63
2023-02-23T20:25:53.705Z,12.35
2023-02-23T20:28:22.303Z,12.38
2023-02-23T20:30:51.035Z,11.82
2023-02-23T20:33:37.701Z,12.05
2023-02-23T20:36:07.895Z,12.32
2023-02-23T20:38:45.621Z,12.43
2023-02-23T20:41:20.476Z,12.65
2023-02-23T20:43:52.907Z,13.40
2023-02-23T20:46:24.287Z,12.50
2023-02-23T20:49:03.423Z,12.85
2023-02-23T20:51:48.603Z,12.85
2023-02-23T20:54:21.801Z,12.70
2023-02-23T20:56:58.978Z,12.18
2023-02-23T20:59:31.026Z,11.30
2023-02-23T21:02:01.504Z,13.55
2023-02-23T21:04:38.984Z,14.32
2023-02-23T21:07:09.085Z,12.80
2023-02-23T21:09:41.166Z,12.85
2023-02-23T21:12:16.258Z,14.25
2023-02-23T21:15:06.046Z,12.57
2023-02-23T21:17:46.767Z,9.98
2023-02-23T21:20:22.148Z,8.98
2023-02-23T21:23:00.356Z,8.18
2023-02-23T21:25:31.372Z,8.05
2023-02-23T21:28:01.862Z,8.60
2023-02-23T21:30:35.850Z,6.75
2023-02-23T21:33:24.556Z,7.15
2023-02-23T21:35:58.569Z,6.07
2023-02-23T21:38:34.636Z,6.85
2023-02-23T21:41:05.651Z,6.07
2023-02-23T21:43:36.572Z,6.18
2023-02-23T21:46:11.064Z,4.90
2023-02-23T21:48:48.804Z,4.32
2023-02-23T21:51:18.413Z,3.55
2023-02-23T21:53:47.708Z,3.70
2023-02-23T21:56:22.293Z,3.53
2023-02-23T21:58:54.858Z,4.93
2023-02-23T22:01:27.316Z,3.45
2023-02-23T22:03:56.723Z,3.60
2023-02-23T22:06:26.963Z,4.38
2023-02-23T22:08:55.586Z,3.63
2023-02-23T22:11:25.943Z,3.47
2023-02-23T22:14:00.239Z,3.55
2023-02-23T22:16:35.760Z,4.22
2023-02-23T22:19:20.003Z,3.97
2023-02-23T22:21:51.344Z,4.10
2023-02-23T22:24:27.830Z,3.95
2023-02-23T22:27:00.864Z,3.90
2023-02-23T22:29:31.096Z,3.30
2023-02-23T22:32:00.279Z,3.72
2023-02-23T22:34:29.493Z,3.67
2023-02-23T22:37:00.272Z,3.22
2023-02-23T22:39:33.213Z,6.88
2023-02-23T22:42:16.695Z,4.85
2023-02-23T22:44:47.073Z,3.95
2023-02-23T22:47:39.509Z,3.78
2023-02-23T22:50:14.067Z,4.30
2023-02-23T22:52:51.593Z,4.20
2023-02-23T22:55:36.656Z,4.68
2023-02-23T22:58:23.212Z,4.40
2023-02-23T23:01:06.090Z,4.25
2023-02-23T23:03:46.753Z,3.47
2023-02-23T23:06:22.082Z,4.80
2023-02-23T23:09:07.556Z,4.75
2023-02-23T23:11:44.087Z,3.58
2023-02-23T23:14:19.193Z,4.15
2023-02-23T23:16:49.643Z,4.07
2023-02-23T23:19:23.664Z,4.90
2023-02-23T23:21:55.047Z,5.63
2023-02-23T23:24:37.425Z,4.13
2023-02-23T23:27:15.917Z,4.82
2023-02-23T23:29:49.330Z,4.60
2023-02-23T23:32:27.539Z,5.13
2023-02-23T23:35:10.982Z,5.75
2023-02-23T23:37:44.046Z,6.43
2023-02-23T23:40:24.230Z,7.10
2023-02-23T23:43:07.449Z,7.75
2023-02-23T23:45:51.873Z,6.47
2023-02-23T23:48:28.369Z,6.60
2023-02-23T23:51:01.622Z,6.45
2023-02-23T23:53:34.639Z,7.13
2023-02-23T23:56:10.740Z,6.78
2023-02-23T23:58:39.388Z,6.85
